sensor_id;sensor_type;location;lat;lon;timestamp;pressure;altitude;pressure_sealevel;temperature;humidity
69173;BME280;56280;49.662;8.408;2023-04-25T00:02:24;100089.91;;;10.72;75.03
69173;BME280;56280;49.662;8.408;2023-04-25T00:04:49;100079.09;;;10.64;75.21
69173;BME280;56280;49.662;8.408;2023-04-25T00:07:15;100064.56;;;10.58;75.32
69173;BME280;56280;49.662;8.408;2023-04-25T00:09:41;100065.13;;;10.62;75.86
69173;BME280;56280;49.662;8.408;2023-04-25T00:12:06;100092.41;;;10.73;76.02
69173;BME280;56280;49.662;8.408;2023-04-25T00:14:32;100073.41;;;10.78;75.62
69173;BME280;56280;49.662;8.408;2023-04-25T00:17:00;100064.34;;;10.71;76.76
69173;BME280;56280;49.662;8.408;2023-04-25T00:19:26;100078.56;;;10.70;76.36
69173;BME280;56280;49.662;8.408;2023-04-25T00:21:54;100075.78;;;10.71;76.32
69173;BME280;56280;49.662;8.408;2023-04-25T00:24:19;100091.59;;;10.73;75.34
69173;BME280;56280;49.662;8.408;2023-04-25T00:26:45;100095.47;;;10.69;75.22
69173;BME280;56280;49.662;8.408;2023-04-25T00:29:10;100088.91;;;10.63;74.92
69173;BME280;56280;49.662;8.408;2023-04-25T00:31:35;100081.75;;;10.64;76.02
69173;BME280;56280;49.662;8.408;2023-04-25T00:34:01;100088.81;;;10.74;75.81
69173;BME280;56280;49.662;8.408;2023-04-25T00:36:26;100079.38;;;10.61;75.87
69173;BME280;56280;49.662;8.408;2023-04-25T00:38:53;100091.72;;;10.71;75.97
69173;BME280;56280;49.662;8.408;2023-04-25T00:41:19;100089.63;;;10.75;74.79
69173;BME280;56280;49.662;8.408;2023-04-25T00:43:45;100092.00;;;10.68;75.05
69173;BME280;56280;49.662;8.408;2023-04-25T00:46:11;100062.34;;;10.63;75.34
69173;BME280;56280;49.662;8.408;2023-04-25T00:48:36;100093.97;;;10.76;75.70
69173;BME280;56280;49.662;8.408;2023-04-25T00:51:01;100085.59;;;10.71;76.30
69173;BME280;56280;49.662;8.408;2023-04-25T00:53:28;100094.53;;;10.80;77.25
69173;BME280;56280;49.662;8.408;2023-04-25T00:55:54;100075.50;;;10.65;76.53
69173;BME280;56280;49.662;8.408;2023-04-25T00:58:20;100084.03;;;10.68;76.45
69173;BME280;56280;49.662;8.408;2023-04-25T01:00:47;100064.31;;;10.61;76.68
69173;BME280;56280;49.662;8.408;2023-04-25T01:03:13;100083.88;;;10.70;76.80
69173;BME280;56280;49.662;8.408;2023-04-25T01:05:41;100086.69;;;10.68;76.88
69173;BME280;56280;49.662;8.408;2023-04-25T01:08:07;100064.81;;;10.45;77.34
69173;BME280;56280;49.662;8.408;2023-04-25T01:10:32;100067.78;;;10.31;76.72
69173;BME280;56280;49.662;8.408;2023-04-25T01:12:58;100086.22;;;10.53;77.89
69173;BME280;56280;49.662;8.408;2023-04-25T01:15:23;100067.31;;;10.47;78.87
69173;BME280;56280;49.662;8.408;2023-04-25T01:17:49;100072.97;;;10.63;79.99
69173;BME280;56280;49.662;8.408;2023-04-25T01:20:15;100082.19;;;10.69;79.87
69173;BME280;56280;49.662;8.408;2023-04-25T01:22:41;100062.06;;;10.66;79.56
69173;BME280;56280;49.662;8.408;2023-04-25T01:25:07;100071.31;;;10.82;79.70
69173;BME280;56280;49.662;8.408;2023-04-25T01:27:32;100074.72;;;10.84;79.83
69173;BME280;56280;49.662;8.408;2023-04-25T01:29:58;100076.06;;;10.78;80.14
69173;BME280;56280;49.662;8.408;2023-04-25T01:32:25;100059.13;;;10.60;80.60
69173;BME280;56280;49.662;8.408;2023-04-25T01:34:50;100080.97;;;10.73;81.40
69173;BME280;56280;49.662;8.408;2023-04-25T01:37:16;100080.84;;;10.74;81.70
69173;BME280;56280;49.662;8.408;2023-04-25T01:39:42;100067.34;;;10.56;81.80
69173;BME280;56280;49.662;8.408;2023-04-25T01:42:07;100059.38;;;10.56;82.62
69173;BME280;56280;49.662;8.408;2023-04-25T01:44:33;100069.03;;;10.57;82.48
69173;BME280;56280;49.662;8.408;2023-04-25T01:46:58;100067.34;;;10.56;83.37
69173;BME280;56280;49.662;8.408;2023-04-25T01:49:23;100085.59;;;10.71;83.21
69173;BME280;56280;49.662;8.408;2023-04-25T01:51:49;100073.63;;;10.55;83.24
69173;BME280;56280;49.662;8.408;2023-04-25T01:54:14;100076.03;;;10.58;83.81
69173;BME280;56280;49.662;8.408;2023-04-25T01:56:40;100068.72;;;10.51;83.63
69173;BME280;56280;49.662;8.408;2023-04-25T01:59:05;100066.47;;;10.46;83.67
69173;BME280;56280;49.662;8.408;2023-04-25T02:01:31;100061.72;;;10.40;83.64
69173;BME280;56280;49.662;8.408;2023-04-25T02:03:57;100061.41;;;10.43;83.65
69173;BME280;56280;49.662;8.408;2023-04-25T02:06:22;100083.59;;;10.63;84.55
69173;BME280;56280;49.662;8.408;2023-04-25T02:08:48;100068.19;;;10.57;83.96
69173;BME280;56280;49.662;8.408;2023-04-25T02:11:13;100077.16;;;10.66;84.08
69173;BME280;56280;49.662;8.408;2023-04-25T02:13:38;100083.34;;;10.76;84.75
69173;BME280;56280;49.662;8.408;2023-04-25T02:16:04;100060.50;;;10.64;83.73
69173;BME280;56280;49.662;8.408;2023-04-25T02:18:29;100049.16;;;10.52;83.65
69173;BME280;56280;49.662;8.408;2023-04-25T02:20:57;100075.09;;;10.69;83.44
69173;BME280;56280;49.662;8.408;2023-04-25T02:23:22;100055.59;;;10.59;83.75
69173;BME280;56280;49.662;8.408;2023-04-25T02:25:48;100073.25;;;10.70;83.00
69173;BME280;56280;49.662;8.408;2023-04-25T02:28:13;100074.22;;;10.69;83.99
69173;BME280;56280;49.662;8.408;2023-04-25T02:30:39;100070.75;;;10.68;84.34
69173;BME280;56280;49.662;8.408;2023-04-25T02:33:04;100065.84;;;10.64;83.72
69173;BME280;56280;49.662;8.408;2023-04-25T02:35:29;100051.59;;;10.65;83.10
69173;BME280;56280;49.662;8.408;2023-04-25T02:37:55;100055.34;;;10.62;83.67
69173;BME280;56280;49.662;8.408;2023-04-25T02:40:20;100053.97;;;10.68;83.41
69173;BME280;56280;49.662;8.408;2023-04-25T02:42:45;100060.94;;;10.69;83.83
69173;BME280;56280;49.662;8.408;2023-04-25T02:45:11;100057.59;;;10.67;83.19
69173;BME280;56280;49.662;8.408;2023-04-25T02:47:36;100055.91;;;10.66;84.12
69173;BME280;56280;49.662;8.408;2023-04-25T02:50:02;100068.50;;;10.64;83.63
69173;BME280;56280;49.662;8.408;2023-04-25T02:52:27;100056.19;;;10.63;83.78
69173;BME280;56280;49.662;8.408;2023-04-25T02:54:52;100066.25;;;10.69;82.76
69173;BME280;56280;49.662;8.408;2023-04-25T02:57:18;100078.44;;;10.71;83.78
69173;BME280;56280;49.662;8.408;2023-04-25T02:59:43;100065.03;;;10.73;83.61
69173;BME280;56280;49.662;8.408;2023-04-25T03:02:09;100055.91;;;10.66;83.54
69173;BME280;56280;49.662;8.408;2023-04-25T03:04:34;100054.50;;;10.62;83.52
69173;BME280;56280;49.662;8.408;2023-04-25T03:07:00;100050.16;;;10.61;84.43
69173;BME280;56280;49.662;8.408;2023-04-25T03:09:26;100053.94;;;10.58;84.03
69173;BME280;56280;49.662;8.408;2023-04-25T03:11:51;100063.44;;;10.61;83.79
69173;BME280;56280;49.662;8.408;2023-04-25T03:14:16;100061.50;;;10.63;83.44
69173;BME280;56280;49.662;8.408;2023-04-25T03:16:42;100036.84;;;10.51;83.87
69173;BME280;56280;49.662;8.408;2023-04-25T03:19:07;100035.88;;;10.52;83.76
69173;BME280;56280;49.662;8.408;2023-04-25T03:21:33;100057.72;;;10.65;82.92
69173;BME280;56280;49.662;8.408;2023-04-25T03:24:03;100055.34;;;10.62;83.92
69173;BME280;56280;49.662;8.408;2023-04-25T03:26:28;100061.50;;;10.63;83.35
69173;BME280;56280;49.662;8.408;2023-04-25T03:28:54;100050.03;;;10.62;83.41
69173;BME280;56280;49.662;8.408;2023-04-25T03:31:20;100044.41;;;10.55;83.48
69173;BME280;56280;49.662;8.408;2023-04-25T03:33:45;100041.47;;;10.49;83.79
69173;BME280;56280;49.662;8.408;2023-04-25T03:36:10;100062.44;;;10.21;83.41
69173;BME280;56280;49.662;8.408;2023-04-25T03:38:36;100043.88;;;10.00;83.40
69173;BME280;56280;49.662;8.408;2023-04-25T03:41:01;100044.97;;;9.97;83.84
69173;BME280;56280;49.662;8.408;2023-04-25T03:43:27;100049.03;;;10.22;84.32
69173;BME280;56280;49.662;8.408;2023-04-25T03:45:52;100044.13;;;10.18;84.22
69173;BME280;56280;49.662;8.408;2023-04-25T03:48:18;100052.91;;;10.18;84.53
69173;BME280;56280;49.662;8.408;2023-04-25T03:50:46;100058.75;;;10.12;85.11
69173;BME280;56280;49.662;8.408;2023-04-25T03:53:11;100068.69;;;10.20;84.23
69173;BME280;56280;49.662;8.408;2023-04-25T03:55:36;100055.16;;;9.92;84.26
69173;BME280;56280;49.662;8.408;2023-04-25T03:58:02;100066.53;;;10.04;83.93
69173;BME280;56280;49.662;8.408;2023-04-25T04:00:27;100068.84;;;10.18;84.50
69173;BME280;56280;49.662;8.408;2023-04-25T04:02:52;100078.78;;;10.26;85.36
69173;BME280;56280;49.662;8.408;2023-04-25T04:05:17;100059.00;;;10.09;84.13
69173;BME280;56280;49.662;8.408;2023-04-25T04:07:43;100067.97;;;10.08;85.04
69173;BME280;56280;49.662;8.408;2023-04-25T04:10:11;100083.72;;;10.31;84.43
69173;BME280;56280;49.662;8.408;2023-04-25T04:12:37;100083.28;;;10.04;83.81
69173;BME280;56280;49.662;8.408;2023-04-25T04:15:04;100079.84;;;10.14;83.53
69173;BME280;56280;49.662;8.408;2023-04-25T04:17:30;100087.19;;;10.00;82.08
69173;BME280;56280;49.662;8.408;2023-04-25T04:19:55;100089.97;;;9.99;83.78
69173;BME280;56280;49.662;8.408;2023-04-25T04:22:21;100085.81;;;10.06;83.51
69173;BME280;56280;49.662;8.408;2023-04-25T04:24:46;100080.31;;;9.98;83.78
69173;BME280;56280;49.662;8.408;2023-04-25T04:27:12;100069.94;;;9.95;84.74
69173;BME280;56280;49.662;8.408;2023-04-25T04:29:38;100068.91;;;10.07;84.54
69173;BME280;56280;49.662;8.408;2023-04-25T04:32:03;100092.97;;;10.15;83.96
69173;BME280;56280;49.662;8.408;2023-04-25T04:34:28;100083.94;;;10.18;83.61
69173;BME280;56280;49.662;8.408;2023-04-25T04:36:54;100100.13;;;10.15;83.73
69173;BME280;56280;49.662;8.408;2023-04-25T04:39:20;100096.75;;;10.34;83.69
69173;BME280;56280;49.662;8.408;2023-04-25T04:41:45;100084.31;;;10.13;82.53
69173;BME280;56280;49.662;8.408;2023-04-25T04:44:11;100070.38;;;9.90;83.05
69173;BME280;56280;49.662;8.408;2023-04-25T04:46:37;100082.44;;;10.04;83.28
69173;BME280;56280;49.662;8.408;2023-04-25T04:49:08;100100.69;;;10.18;82.96
69173;BME280;56280;49.662;8.408;2023-04-25T04:51:34;100106.06;;;10.07;83.26
69173;BME280;56280;49.662;8.408;2023-04-25T04:53:59;100106.59;;;10.01;83.60
69173;BME280;56280;49.662;8.408;2023-04-25T04:56:30;100100.13;;;9.94;84.43
69173;BME280;56280;49.662;8.408;2023-04-25T04:58:58;100100.72;;;9.97;84.75
69173;BME280;56280;49.662;8.408;2023-04-25T05:01:24;100120.38;;;10.16;83.65
69173;BME280;56280;49.662;8.408;2023-04-25T05:03:50;100103.94;;;10.01;83.42
69173;BME280;56280;49.662;8.408;2023-04-25T05:06:17;100123.31;;;10.13;83.49
69173;BME280;56280;49.662;8.408;2023-04-25T05:08:43;100117.38;;;10.09;83.45
69173;BME280;56280;49.662;8.408;2023-04-25T05:11:08;100108.41;;;10.00;83.89
69173;BME280;56280;49.662;8.408;2023-04-25T05:13:33;100111.31;;;9.97;83.78
69173;BME280;56280;49.662;8.408;2023-04-25T05:15:58;100111.69;;;9.72;85.27
69173;BME280;56280;49.662;8.408;2023-04-25T05:18:24;100117.94;;;9.49;87.02
69173;BME280;56280;49.662;8.408;2023-04-25T05:20:49;100137.59;;;9.47;87.79
69173;BME280;56280;49.662;8.408;2023-04-25T05:23:15;100138.44;;;9.47;87.51
69173;BME280;56280;49.662;8.408;2023-04-25T05:25:40;100140.66;;;9.63;87.15
69173;BME280;56280;49.662;8.408;2023-04-25T05:28:05;100141.38;;;9.65;86.27
69173;BME280;56280;49.662;8.408;2023-04-25T05:30:31;100115.53;;;9.46;86.96
69173;BME280;56280;49.662;8.408;2023-04-25T05:32:56;100139.03;;;9.51;85.06
69173;BME280;56280;49.662;8.408;2023-04-25T05:35:22;100146.44;;;9.36;85.47
69173;BME280;56280;49.662;8.408;2023-04-25T05:37:47;100150.16;;;9.34;86.67
69173;BME280;56280;49.662;8.408;2023-04-25T05:40:12;100138.69;;;8.89;87.78
69173;BME280;56280;49.662;8.408;2023-04-25T05:42:38;100162.19;;;8.60;88.30
69173;BME280;56280;49.662;8.408;2023-04-25T05:45:03;100139.25;;;8.36;89.62
69173;BME280;56280;49.662;8.408;2023-04-25T05:47:29;100148.53;;;8.42;90.55
69173;BME280;56280;49.662;8.408;2023-04-25T05:49:54;100147.75;;;8.17;90.04
69173;BME280;56280;49.662;8.408;2023-04-25T05:52:20;100148.09;;;8.13;89.57
69173;BME280;56280;49.662;8.408;2023-04-25T05:54:45;100155.78;;;8.04;88.26
69173;BME280;56280;49.662;8.408;2023-04-25T05:57:24;100169.25;;;8.01;87.37
69173;BME280;56280;49.662;8.408;2023-04-25T05:59:50;100163.97;;;8.13;86.84
69173;BME280;56280;49.662;8.408;2023-04-25T06:02:15;100169.97;;;7.92;85.44
69173;BME280;56280;49.662;8.408;2023-04-25T06:04:41;100178.56;;;7.83;83.13
69173;BME280;56280;49.662;8.408;2023-04-25T06:07:06;100186.25;;;7.75;82.57
69173;BME280;56280;49.662;8.408;2023-04-25T06:09:31;100178.75;;;7.69;83.68
69173;BME280;56280;49.662;8.408;2023-04-25T06:11:57;100178.69;;;7.81;83.53
69173;BME280;56280;49.662;8.408;2023-04-25T06:14:22;100177.69;;;7.71;81.81
69173;BME280;56280;49.662;8.408;2023-04-25T06:16:47;100167.09;;;7.47;80.70
69173;BME280;56280;49.662;8.408;2023-04-25T06:19:12;100172.47;;;7.58;82.88
69173;BME280;56280;49.662;8.408;2023-04-25T06:21:38;100166.53;;;7.55;81.71
69173;BME280;56280;49.662;8.408;2023-04-25T06:24:03;100160.69;;;7.62;81.90
69173;BME280;56280;49.662;8.408;2023-04-25T06:26:29;100169.50;;;7.74;81.63
69173;BME280;56280;49.662;8.408;2023-04-25T06:28:54;100180.09;;;7.74;81.27
69173;BME280;56280;49.662;8.408;2023-04-25T06:31:19;100151.38;;;7.70;81.53
69173;BME280;56280;49.662;8.408;2023-04-25T06:33:44;100182.78;;;7.85;79.49
69173;BME280;56280;49.662;8.408;2023-04-25T06:36:10;100175.69;;;7.86;80.55
69173;BME280;56280;49.662;8.408;2023-04-25T06:38:35;100165.41;;;7.70;79.68
69173;BME280;56280;49.662;8.408;2023-04-25T06:41:00;100172.41;;;7.71;79.70
69173;BME280;56280;49.662;8.408;2023-04-25T06:43:26;100160.47;;;7.65;78.78
69173;BME280;56280;49.662;8.408;2023-04-25T06:45:51;100183.47;;;7.76;80.26
69173;BME280;56280;49.662;8.408;2023-04-25T06:48:16;100177.03;;;7.92;80.67
69173;BME280;56280;49.662;8.408;2023-04-25T06:50:41;100196.22;;;8.07;80.80
69173;BME280;56280;49.662;8.408;2023-04-25T06:53:07;100187.25;;;7.61;80.37
69173;BME280;56280;49.662;8.408;2023-04-25T06:55:33;100190.66;;;7.50;79.65
69173;BME280;56280;49.662;8.408;2023-04-25T06:57:59;100196.06;;;7.73;80.31
69173;BME280;56280;49.662;8.408;2023-04-25T07:00:25;100195.22;;;7.72;79.08
69173;BME280;56280;49.662;8.408;2023-04-25T07:02:50;100199.69;;;8.07;79.40
69173;BME280;56280;49.662;8.408;2023-04-25T07:05:16;100222.78;;;8.05;78.95
69173;BME280;56280;49.662;8.408;2023-04-25T07:07:41;100217.34;;;7.95;79.02
69173;BME280;56280;49.662;8.408;2023-04-25T07:10:06;100221.78;;;7.95;79.53
69173;BME280;56280;49.662;8.408;2023-04-25T07:12:32;100218.94;;;8.09;79.03
69173;BME280;56280;49.662;8.408;2023-04-25T07:14:57;100217.00;;;8.11;78.65
69173;BME280;56280;49.662;8.408;2023-04-25T07:17:22;100218.66;;;8.36;79.74
69173;BME280;56280;49.662;8.408;2023-04-25T07:19:48;100221.34;;;8.12;77.72
69173;BME280;56280;49.662;8.408;2023-04-25T07:22:13;100228.72;;;8.20;77.99
69173;BME280;56280;49.662;8.408;2023-04-25T07:24:39;100226.09;;;8.20;78.82
69173;BME280;56280;49.662;8.408;2023-04-25T07:27:04;100214.97;;;8.03;79.10
69173;BME280;56280;49.662;8.408;2023-04-25T07:29:29;100215.00;;;8.15;77.18
69173;BME280;56280;49.662;8.408;2023-04-25T07:31:55;100220.50;;;8.00;76.83
69173;BME280;56280;49.662;8.408;2023-04-25T07:34:20;100226.31;;;8.17;76.81
69173;BME280;56280;49.662;8.408;2023-04-25T07:36:46;100237.03;;;8.51;79.56
69173;BME280;56280;49.662;8.408;2023-04-25T07:39:11;100226.81;;;8.91;78.73
69173;BME280;56280;49.662;8.408;2023-04-25T07:41:36;100225.88;;;8.92;74.90
69173;BME280;56280;49.662;8.408;2023-04-25T07:44:01;100191.31;;;8.94;74.76
69173;BME280;56280;49.662;8.408;2023-04-25T07:46:27;100229.31;;;9.38;74.21
69173;BME280;56280;49.662;8.408;2023-04-25T07:48:52;100238.28;;;8.92;73.58
69173;BME280;56280;49.662;8.408;2023-04-25T07:51:19;100229.34;;;9.04;72.28
69173;BME280;56280;49.662;8.408;2023-04-25T07:53:45;100222.63;;;9.23;72.20
69173;BME280;56280;49.662;8.408;2023-04-25T07:56:11;100228.63;;;8.68;73.26
69173;BME280;56280;49.662;8.408;2023-04-25T07:58:36;100228.63;;;8.68;72.93
69173;BME280;56280;49.662;8.408;2023-04-25T08:01:01;100234.41;;;8.96;72.38
69173;BME280;56280;49.662;8.408;2023-04-25T08:03:27;100244.66;;;8.89;73.19
69173;BME280;56280;49.662;8.408;2023-04-25T08:05:52;100239.72;;;8.96;70.88
69173;BME280;56280;49.662;8.408;2023-04-25T08:08:17;100266.81;;;9.11;74.07
69173;BME280;56280;49.662;8.408;2023-04-25T08:10:43;100256.44;;;8.74;71.91
69173;BME280;56280;49.662;8.408;2023-04-25T08:13:08;100255.13;;;8.80;73.54
69173;BME280;56280;49.662;8.408;2023-04-25T08:15:33;100252.97;;;8.96;72.02
69173;BME280;56280;49.662;8.408;2023-04-25T08:17:58;100241.41;;;8.97;73.10
69173;BME280;56280;49.662;8.408;2023-04-25T08:20:24;100266.56;;;9.48;73.33
69173;BME280;56280;49.662;8.408;2023-04-25T08:22:50;100273.78;;;9.46;71.33
69173;BME280;56280;49.662;8.408;2023-04-25T08:25:15;100281.88;;;9.44;70.53
69173;BME280;56280;49.662;8.408;2023-04-25T08:27:40;100267.66;;;9.34;70.59
69173;BME280;56280;49.662;8.408;2023-04-25T08:30:06;100261.81;;;9.74;71.87
69173;BME280;56280;49.662;8.408;2023-04-25T08:32:33;100288.38;;;9.52;70.13
69173;BME280;56280;49.662;8.408;2023-04-25T08:34:59;100289.59;;;9.47;71.49
69173;BME280;56280;49.662;8.408;2023-04-25T08:37:24;100281.28;;;9.41;71.33
69173;BME280;56280;49.662;8.408;2023-04-25T08:39:49;100280.31;;;9.53;69.96
69173;BME280;56280;49.662;8.408;2023-04-25T08:42:17;100290.53;;;9.12;70.86
69173;BME280;56280;49.662;8.408;2023-04-25T08:44:44;100288.84;;;8.78;73.82
69173;BME280;56280;49.662;8.408;2023-04-25T08:47:10;100289.94;;;8.86;72.07
69173;BME280;56280;49.662;8.408;2023-04-25T08:49:36;100303.28;;;8.73;73.79
69173;BME280;56280;49.662;8.408;2023-04-25T08:52:04;100297.91;;;9.20;73.88
69173;BME280;56280;49.662;8.408;2023-04-25T08:54:32;100299.41;;;9.91;72.48
69173;BME280;56280;49.662;8.408;2023-04-25T08:57:00;100315.38;;;9.45;70.95
69173;BME280;56280;49.662;8.408;2023-04-25T08:59:27;100330.19;;;9.14;73.05
69173;BME280;56280;49.662;8.408;2023-04-25T09:01:53;100326.00;;;9.45;74.23
69173;BME280;56280;49.662;8.408;2023-04-25T09:04:18;100320.22;;;10.07;71.54
69173;BME280;56280;49.662;8.408;2023-04-25T09:06:45;100319.81;;;10.22;70.09
69173;BME280;56280;49.662;8.408;2023-04-25T09:09:11;100319.34;;;9.62;68.84
69173;BME280;56280;49.662;8.408;2023-04-25T09:11:37;100331.03;;;9.60;70.47
69173;BME280;56280;49.662;8.408;2023-04-25T09:14:16;100330.00;;;9.95;68.52
69173;BME280;56280;49.662;8.408;2023-04-25T09:21:51;100331.22;;;11.40;65.29
69173;BME280;56280;49.662;8.408;2023-04-25T09:24:37;100335.38;;;12.14;65.13
69173;BME280;56280;49.662;8.408;2023-04-25T09:27:07;100317.53;;;12.92;60.24
69173;BME280;56280;49.662;8.408;2023-04-25T09:29:38;100315.25;;;13.55;57.61
69173;BME280;56280;49.662;8.408;2023-04-25T09:32:17;100332.56;;;13.78;60.97
69173;BME280;56280;49.662;8.408;2023-04-25T09:34:45;100341.47;;;13.69;58.84
69173;BME280;56280;49.662;8.408;2023-04-25T09:37:17;100348.41;;;12.95;58.46
69173;BME280;56280;49.662;8.408;2023-04-25T09:39:44;100354.06;;;13.39;58.64
69173;BME280;56280;49.662;8.408;2023-04-25T09:42:10;100335.41;;;12.53;61.87
69173;BME280;56280;49.662;8.408;2023-04-25T09:44:36;100347.31;;;12.49;59.08
69173;BME280;56280;49.662;8.408;2023-04-25T09:47:01;100354.75;;;12.16;59.31
69173;BME280;56280;49.662;8.408;2023-04-25T09:49:28;100367.31;;;11.32;63.89
69173;BME280;56280;49.662;8.408;2023-04-25T09:51:54;100369.44;;;10.54;61.22
69173;BME280;56280;49.662;8.408;2023-04-25T09:54:20;100360.94;;;10.28;62.50
69173;BME280;56280;49.662;8.408;2023-04-25T09:56:48;100377.53;;;10.85;65.04
69173;BME280;56280;49.662;8.408;2023-04-25T09:59:14;100362.00;;;10.48;60.83
69173;BME280;56280;49.662;8.408;2023-04-25T10:01:40;100379.31;;;10.85;63.75
69173;BME280;56280;49.662;8.408;2023-04-25T10:04:10;100378.22;;;11.29;59.57
69173;BME280;56280;49.662;8.408;2023-04-25T10:06:37;100380.38;;;11.15;61.21
69173;BME280;56280;49.662;8.408;2023-04-25T10:09:03;100386.53;;;11.15;62.79
69173;BME280;56280;49.662;8.408;2023-04-25T10:11:30;100381.88;;;10.54;61.33
69173;BME280;56280;49.662;8.408;2023-04-25T10:13:57;100379.78;;;10.14;63.59
69173;BME280;56280;49.662;8.408;2023-04-25T10:16:22;100378.03;;;10.03;64.56
69173;BME280;56280;49.662;8.408;2023-04-25T10:18:49;100384.50;;;10.65;65.28
69173;BME280;56280;49.662;8.408;2023-04-25T10:21:15;100389.25;;;10.50;64.79
69173;BME280;56280;49.662;8.408;2023-04-25T10:23:41;100394.75;;;10.70;63.62
69173;BME280;56280;49.662;8.408;2023-04-25T10:26:07;100395.19;;;11.17;61.10
69173;BME280;56280;49.662;8.408;2023-04-25T10:28:57;100398.97;;;10.93;60.63
69173;BME280;56280;49.662;8.408;2023-04-25T10:31:23;100404.28;;;10.06;63.55
69173;BME280;56280;49.662;8.408;2023-04-25T10:33:48;100392.13;;;10.03;66.59
69173;BME280;56280;49.662;8.408;2023-04-25T10:36:17;100410.38;;;9.97;66.13
69173;BME280;56280;49.662;8.408;2023-04-25T10:38:43;100398.06;;;9.62;65.70
69173;BME280;56280;49.662;8.408;2023-04-25T10:41:10;100419.53;;;9.70;65.75
69173;BME280;56280;49.662;8.408;2023-04-25T10:43:41;100412.16;;;9.62;65.56
69173;BME280;56280;49.662;8.408;2023-04-25T10:46:24;100421.69;;;9.65;67.02
69173;BME280;56280;49.662;8.408;2023-04-25T10:48:51;100416.63;;;9.96;65.04
69173;BME280;56280;49.662;8.408;2023-04-25T10:53:46;100410.56;;;10.16;64.73
69173;BME280;56280;49.662;8.408;2023-04-25T10:56:16;100429.34;;;10.47;65.11
69173;BME280;56280;49.662;8.408;2023-04-25T10:58:43;100409.22;;;10.66;63.80
69173;BME280;56280;49.662;8.408;2023-04-25T11:01:09;100423.47;;;10.44;64.10
69173;BME280;56280;49.662;8.408;2023-04-25T11:03:40;100411.63;;;10.69;63.07
69173;BME280;56280;49.662;8.408;2023-04-25T11:06:17;100420.13;;;11.16;62.40
69173;BME280;56280;49.662;8.408;2023-04-25T11:08:49;100422.81;;;11.47;61.27
69173;BME280;56280;49.662;8.408;2023-04-25T11:11:16;100415.25;;;11.42;61.33
69173;BME280;56280;49.662;8.408;2023-04-25T11:13:42;100417.94;;;11.83;59.29
69173;BME280;56280;49.662;8.408;2023-04-25T11:16:08;100405.47;;;12.14;58.18
69173;BME280;56280;49.662;8.408;2023-04-25T11:18:33;100412.72;;;12.02;56.63
69173;BME280;56280;49.662;8.408;2023-04-25T11:20:59;100417.50;;;11.78;57.06
69173;BME280;56280;49.662;8.408;2023-04-25T11:23:25;100411.94;;;11.91;57.02
69173;BME280;56280;49.662;8.408;2023-04-25T11:25:51;100430.31;;;11.32;60.67
69173;BME280;56280;49.662;8.408;2023-04-25T11:28:21;100409.59;;;11.36;61.50
69173;BME280;56280;49.662;8.408;2023-04-25T11:30:48;100423.75;;;11.67;62.94
69173;BME280;56280;49.662;8.408;2023-04-25T11:33:15;100434.94;;;12.22;58.66
69173;BME280;56280;49.662;8.408;2023-04-25T11:35:40;100426.25;;;12.30;57.72
69173;BME280;56280;49.662;8.408;2023-04-25T11:38:05;100416.38;;;11.71;58.24
69173;BME280;56280;49.662;8.408;2023-04-25T11:40:31;100428.75;;;11.60;59.37
69173;BME280;56280;49.662;8.408;2023-04-25T11:42:59;100422.72;;;11.89;59.10
69173;BME280;56280;49.662;8.408;2023-04-25T11:45:26;100422.03;;;11.56;62.91
69173;BME280;56280;49.662;8.408;2023-04-25T11:47:51;100439.31;;;11.41;60.39
69173;BME280;56280;49.662;8.408;2023-04-25T11:50:17;100420.75;;;11.29;60.97
69173;BME280;56280;49.662;8.408;2023-04-25T11:52:46;100433.66;;;11.86;58.26
69173;BME280;56280;49.662;8.408;2023-04-25T11:55:19;100441.03;;;12.03;58.93
69173;BME280;56280;49.662;8.408;2023-04-25T11:57:48;100434.19;;;12.11;59.22
69173;BME280;56280;49.662;8.408;2023-04-25T12:00:20;100442.13;;;12.01;59.50
69173;BME280;56280;49.662;8.408;2023-04-25T12:02:48;100450.13;;;12.01;56.38
69173;BME280;56280;49.662;8.408;2023-04-25T12:05:15;100451.34;;;11.66;59.51
69173;BME280;56280;49.662;8.408;2023-04-25T12:07:44;100446.69;;;11.58;58.66
69173;BME280;56280;49.662;8.408;2023-04-25T12:10:12;100447.34;;;11.29;63.48
69173;BME280;56280;49.662;8.408;2023-04-25T12:12:41;100448.47;;;11.48;59.29
69173;BME280;56280;49.662;8.408;2023-04-25T12:15:14;100453.56;;;11.61;61.93
69173;BME280;56280;49.662;8.408;2023-04-25T12:17:45;100439.81;;;10.92;61.10
69173;BME280;56280;49.662;8.408;2023-04-25T12:20:13;100436.06;;;11.16;62.25
69173;BME280;56280;49.662;8.408;2023-04-25T12:22:44;100453.31;;;11.43;60.12
69173;BME280;56280;49.662;8.408;2023-04-25T12:25:11;100448.78;;;11.85;57.84
69173;BME280;56280;49.662;8.408;2023-04-25T12:27:38;100448.41;;;12.40;58.49
69173;BME280;56280;49.662;8.408;2023-04-25T12:30:07;100454.88;;;11.97;59.37
69173;BME280;56280;49.662;8.408;2023-04-25T12:32:33;100446.94;;;11.55;57.81
69173;BME280;56280;49.662;8.408;2023-04-25T12:34:58;100444.13;;;11.05;56.79
69173;BME280;56280;49.662;8.408;2023-04-25T12:37:24;100454.44;;;11.19;59.95
69173;BME280;56280;49.662;8.408;2023-04-25T12:39:49;100446.72;;;11.16;58.40
69173;BME280;56280;49.662;8.408;2023-04-25T12:42:15;100454.94;;;11.55;58.33
69173;BME280;56280;49.662;8.408;2023-04-25T12:44:40;100457.34;;;11.16;61.72
69173;BME280;56280;49.662;8.408;2023-04-25T12:47:06;100458.72;;;10.78;62.05
69173;BME280;56280;49.662;8.408;2023-04-25T12:49:31;100472.53;;;10.93;60.01
69173;BME280;56280;49.662;8.408;2023-04-25T12:51:57;100474.06;;;10.74;62.88
69173;BME280;56280;49.662;8.408;2023-04-25T12:54:22;100448.28;;;10.54;62.65
69173;BME280;56280;49.662;8.408;2023-04-25T12:56:48;100465.81;;;10.56;62.30